sensor_id;sensor_type;location;lat;lon;timestamp;temperature;humidity
54884;DHT22;40776;52.880;6.016;2023-07-13T05:08:23;17.00;99.90
54884;DHT22;40776;52.880;6.016;2023-07-13T05:35:09;18.40;99.90
54884;DHT22;40776;52.880;6.016;2023-07-13T06:18:59;19.40;99.90
54884;DHT22;40776;52.880;6.016;2023-07-13T06:26:19;19.70;99.90
54884;DHT22;40776;52.880;6.016;2023-07-13T06:28:45;20.20;99.90
54884;DHT22;40776;52.880;6.016;2023-07-13T06:31:12;20.50;99.90
54884;DHT22;40776;52.880;6.016;2023-07-13T06:36:05;20.60;99.90
54884;DHT22;40776;52.880;6.016;2023-07-13T06:40:58;20.10;99.90
54884;DHT22;40776;52.880;6.016;2023-07-13T06:45:51;20.60;99.90
54884;DHT22;40776;52.880;6.016;2023-07-13T06:48:18;20.70;99.90
54884;DHT22;40776;52.880;6.016;2023-07-13T06:50:45;21.20;99.90
54884;DHT22;40776;52.880;6.016;2023-07-13T06:53:11;21.20;99.90
54884;DHT22;40776;52.880;6.016;2023-07-13T06:55:38;21.10;99.90
54884;DHT22;40776;52.880;6.016;2023-07-13T06:58:04;21.10;99.90
54884;DHT22;40776;52.880;6.016;2023-07-13T07:00:30;21.00;99.90
54884;DHT22;40776;52.880;6.016;2023-07-13T07:02:56;20.90;99.90
54884;DHT22;40776;52.880;6.016;2023-07-13T07:12:42;20.50;99.90
54884;DHT22;40776;52.880;6.016;2023-07-13T07:17:34;20.60;99.90
54884;DHT22;40776;52.880;6.016;2023-07-13T07:27:22;20.60;99.90
54884;DHT22;40776;52.880;6.016;2023-07-13T07:37:06;20.50;99.90
54884;DHT22;40776;52.880;6.016;2023-07-13T07:46:52;20.60;99.90
54884;DHT22;40776;52.880;6.016;2023-07-13T07:49:18;20.60;99.90
54884;DHT22;40776;52.880;6.016;2023-07-13T07:51:44;20.50;99.90
54884;DHT22;40776;52.880;6.016;2023-07-13T07:56:35;20.50;99.90
54884;DHT22;40776;52.880;6.016;2023-07-13T08:01:27;20.50;99.90
54884;DHT22;40776;52.880;6.016;2023-07-13T08:23:25;20.30;99.90
54884;DHT22;40776;52.880;6.016;2023-07-13T08:25:54;20.20;99.90
54884;DHT22;40776;52.880;6.016;2023-07-13T08:28:21;19.90;99.90
54884;DHT22;40776;52.880;6.016;2023-07-13T08:35:50;20.60;99.90
54884;DHT22;40776;52.880;6.016;2023-07-13T08:38:17;20.90;99.90
54884;DHT22;40776;52.880;6.016;2023-07-13T08:43:16;20.80;99.90
54884;DHT22;40776;52.880;6.016;2023-07-13T08:45:47;20.60;99.90
54884;DHT22;40776;52.880;6.016;2023-07-13T08:48:36;20.50;99.90
54884;DHT22;40776;52.880;6.016;2023-07-13T09:03:55;20.60;99.90
54884;DHT22;40776;52.880;6.016;2023-07-13T09:09:10;20.80;99.90
54884;DHT22;40776;52.880;6.016;2023-07-13T09:11:51;20.50;99.90
54884;DHT22;40776;52.880;6.016;2023-07-13T09:16:59;21.00;99.90
54884;DHT22;40776;52.880;6.016;2023-07-13T09:19:30;21.30;99.90
54884;DHT22;40776;52.880;6.016;2023-07-13T09:21:59;20.90;99.90
54884;DHT22;40776;52.880;6.016;2023-07-13T09:24:41;21.50;99.90
54884;DHT22;40776;52.880;6.016;2023-07-13T09:27:35;22.20;99.90
54884;DHT22;40776;52.880;6.016;2023-07-13T09:32:51;22.70;99.90
54884;DHT22;40776;52.880;6.016;2023-07-13T09:35:27;22.10;99.90
54884;DHT22;40776;52.880;6.016;2023-07-13T09:38:19;22.00;99.90
54884;DHT22;40776;52.880;6.016;2023-07-13T09:43:21;22.50;99.90
54884;DHT22;40776;52.880;6.016;2023-07-13T09:45:47;22.50;99.90
54884;DHT22;40776;52.880;6.016;2023-07-13T09:48:15;22.80;99.90
54884;DHT22;40776;52.880;6.016;2023-07-13T09:50:42;23.10;99.90
54884;DHT22;40776;52.880;6.016;2023-07-13T09:53:30;23.10;99.90
54884;DHT22;40776;52.880;6.016;2023-07-13T09:55:56;22.70;99.90
54884;DHT22;40776;52.880;6.016;2023-07-13T09:58:27;23.20;99.90
54884;DHT22;40776;52.880;6.016;2023-07-13T10:01:04;23.00;99.90
54884;DHT22;40776;52.880;6.016;2023-07-13T10:03:35;23.10;99.90
54884;DHT22;40776;52.880;6.016;2023-07-13T10:06:14;23.00;99.90
54884;DHT22;40776;52.880;6.016;2023-07-13T10:08:40;22.70;99.90
54884;DHT22;40776;52.880;6.016;2023-07-13T10:11:11;22.70;99.90
54884;DHT22;40776;52.880;6.016;2023-07-13T10:13:44;22.70;99.90
54884;DHT22;40776;52.880;6.016;2023-07-13T10:16:10;22.90;99.90
54884;DHT22;40776;52.880;6.016;2023-07-13T10:21:54;23.40;99.90
54884;DHT22;40776;52.880;6.016;2023-07-13T10:29:36;23.40;99.90
54884;DHT22;40776;52.880;6.016;2023-07-13T10:32:09;23.70;99.90
54884;DHT22;40776;52.880;6.016;2023-07-13T10:34:36;23.40;99.90
54884;DHT22;40776;52.880;6.016;2023-07-13T10:37:03;23.40;99.90
54884;DHT22;40776;52.880;6.016;2023-07-13T10:39:31;23.40;99.90
54884;DHT22;40776;52.880;6.016;2023-07-13T10:42:02;23.60;99.90
54884;DHT22;40776;52.880;6.016;2023-07-13T10:44:31;23.60;99.90
54884;DHT22;40776;52.880;6.016;2023-07-13T10:47:07;23.50;99.90
54884;DHT22;40776;52.880;6.016;2023-07-13T10:49:36;23.80;99.90
54884;DHT22;40776;52.880;6.016;2023-07-13T10:52:02;23.60;99.90
54884;DHT22;40776;52.880;6.016;2023-07-13T10:54:34;23.90;99.90
54884;DHT22;40776;52.880;6.016;2023-07-13T10:57:20;23.70;99.90
54884;DHT22;40776;52.880;6.016;2023-07-13T11:00:14;23.80;99.90
54884;DHT22;40776;52.880;6.016;2023-07-13T11:02:41;23.40;99.90
54884;DHT22;40776;52.880;6.016;2023-07-13T11:05:40;23.80;99.90
54884;DHT22;40776;52.880;6.016;2023-07-13T11:08:31;23.50;99.90
54884;DHT22;40776;52.880;6.016;2023-07-13T11:10:58;23.60;99.90
54884;DHT22;40776;52.880;6.016;2023-07-13T11:16:32;23.40;99.90
54884;DHT22;40776;52.880;6.016;2023-07-13T11:21:28;23.70;99.90
54884;DHT22;40776;52.880;6.016;2023-07-13T11:24:15;24.10;99.90
54884;DHT22;40776;52.880;6.016;2023-07-13T11:29:33;24.10;99.90
54884;DHT22;40776;52.880;6.016;2023-07-13T11:32:24;24.20;99.90
54884;DHT22;40776;52.880;6.016;2023-07-13T11:34:53;24.20;99.90
54884;DHT22;40776;52.880;6.016;2023-07-13T11:37:20;23.90;99.90
54884;DHT22;40776;52.880;6.016;2023-07-13T11:39:48;23.90;99.90
54884;DHT22;40776;52.880;6.016;2023-07-13T11:42:17;24.00;99.90
54884;DHT22;40776;52.880;6.016;2023-07-13T11:44:48;23.60;99.90
54884;DHT22;40776;52.880;6.016;2023-07-13T11:47:19;23.50;99.90
54884;DHT22;40776;52.880;6.016;2023-07-13T11:49:54;23.80;99.90
54884;DHT22;40776;52.880;6.016;2023-07-13T11:52:26;23.90;99.90
54884;DHT22;40776;52.880;6.016;2023-07-13T11:54:56;24.00;99.90
54884;DHT22;40776;52.880;6.016;2023-07-13T11:57:30;23.90;99.90
54884;DHT22;40776;52.880;6.016;2023-07-13T11:59:58;24.10;99.90
54884;DHT22;40776;52.880;6.016;2023-07-13T12:02:37;24.10;99.90
54884;DHT22;40776;52.880;6.016;2023-07-13T12:05:05;24.10;99.90
54884;DHT22;40776;52.880;6.016;2023-07-13T12:07:33;24.00;99.90
54884;DHT22;40776;52.880;6.016;2023-07-13T12:12:54;24.50;99.90
54884;DHT22;40776;52.880;6.016;2023-07-13T12:15:22;24.80;99.90
54884;DHT22;40776;52.880;6.016;2023-07-13T12:17:48;24.50;99.90
54884;DHT22;40776;52.880;6.016;2023-07-13T12:20:27;24.40;99.90
54884;DHT22;40776;52.880;6.016;2023-07-13T12:22:54;24.00;99.90
54884;DHT22;40776;52.880;6.016;2023-07-13T12:27:48;23.80;99.90
54884;DHT22;40776;52.880;6.016;2023-07-13T12:30:32;24.00;99.90
54884;DHT22;40776;52.880;6.016;2023-07-13T12:35:30;24.20;99.90
54884;DHT22;40776;52.880;6.016;2023-07-13T12:37:59;24.20;99.90
54884;DHT22;40776;52.880;6.016;2023-07-13T12:40:32;24.20;99.90
54884;DHT22;40776;52.880;6.016;2023-07-13T12:45:27;24.40;99.90
54884;DHT22;40776;52.880;6.016;2023-07-13T12:48:02;24.50;99.90
54884;DHT22;40776;52.880;6.016;2023-07-13T12:50:42;24.40;99.90
54884;DHT22;40776;52.880;6.016;2023-07-13T12:53:20;24.20;99.90
54884;DHT22;40776;52.880;6.016;2023-07-13T12:55:48;24.00;99.90
54884;DHT22;40776;52.880;6.016;2023-07-13T12:58:47;23.60;99.90
54884;DHT22;40776;52.880;6.016;2023-07-13T13:03:52;23.40;99.90
54884;DHT22;40776;52.880;6.016;2023-07-13T13:08:48;23.10;99.90
54884;DHT22;40776;52.880;6.016;2023-07-13T13:11:15;23.00;99.90
54884;DHT22;40776;52.880;6.016;2023-07-13T13:13:45;23.20;99.90
54884;DHT22;40776;52.880;6.016;2023-07-13T13:18:53;23.40;99.90
54884;DHT22;40776;52.880;6.016;2023-07-13T13:21:20;23.30;99.90
54884;DHT22;40776;52.880;6.016;2023-07-13T13:23:46;23.60;99.90
54884;DHT22;40776;52.880;6.016;2023-07-13T13:28:42;23.10;99.90
54884;DHT22;40776;52.880;6.016;2023-07-13T13:31:09;22.90;99.90
54884;DHT22;40776;52.880;6.016;2023-07-13T13:33:43;22.80;99.90
54884;DHT22;40776;52.880;6.016;2023-07-13T13:36:19;22.80;99.90
54884;DHT22;40776;52.880;6.016;2023-07-13T13:51:20;22.60;99.90
54884;DHT22;40776;52.880;6.016;2023-07-13T13:53:47;22.40;99.90
54884;DHT22;40776;52.880;6.016;2023-07-13T14:03:38;22.70;99.90
54884;DHT22;40776;52.880;6.016;2023-07-13T14:06:04;22.60;99.90
54884;DHT22;40776;52.880;6.016;2023-07-13T14:13:36;22.50;99.90
54884;DHT22;40776;52.880;6.016;2023-07-13T14:18:35;22.70;99.90
54884;DHT22;40776;52.880;6.016;2023-07-13T14:23:30;23.40;99.90
54884;DHT22;40776;52.880;6.016;2023-07-13T14:28:26;23.30;99.90
54884;DHT22;40776;52.880;6.016;2023-07-13T14:35:49;22.90;99.90
54884;DHT22;40776;52.880;6.016;2023-07-13T14:38:17;23.00;99.90
54884;DHT22;40776;52.880;6.016;2023-07-13T14:40:44;23.50;99.90
54884;DHT22;40776;52.880;6.016;2023-07-13T14:43:18;24.00;99.90
54884;DHT22;40776;52.880;6.016;2023-07-13T14:45:47;24.40;99.90
54884;DHT22;40776;52.880;6.016;2023-07-13T14:50:41;23.70;99.90
54884;DHT22;40776;52.880;6.016;2023-07-13T14:53:16;23.20;99.90
54884;DHT22;40776;52.880;6.016;2023-07-13T14:55:43;23.50;99.90
54884;DHT22;40776;52.880;6.016;2023-07-13T14:58:09;24.20;99.90
54884;DHT22;40776;52.880;6.016;2023-07-13T15:00:36;24.60;99.90
54884;DHT22;40776;52.880;6.016;2023-07-13T15:03:04;24.10;99.90
54884;DHT22;40776;52.880;6.016;2023-07-13T15:05:32;23.60;99.90
54884;DHT22;40776;52.880;6.016;2023-07-13T15:08:02;23.20;99.90
54884;DHT22;40776;52.880;6.016;2023-07-13T15:10:32;23.00;99.90
54884;DHT22;40776;52.880;6.016;2023-07-13T15:15:31;22.80;99.90
54884;DHT22;40776;52.880;6.016;2023-07-13T15:20:34;22.90;99.90
54884;DHT22;40776;52.880;6.016;2023-07-13T15:23:03;22.50;99.90
54884;DHT22;40776;52.880;6.016;2023-07-13T15:25:34;23.10;99.90
54884;DHT22;40776;52.880;6.016;2023-07-13T15:28:01;23.10;99.90
54884;DHT22;40776;52.880;6.016;2023-07-13T15:30:30;22.80;99.90
54884;DHT22;40776;52.880;6.016;2023-07-13T15:33:05;22.80;99.90
54884;DHT22;40776;52.880;6.016;2023-07-13T15:35:35;22.70;99.90
54884;DHT22;40776;52.880;6.016;2023-07-13T15:40:29;22.90;99.90
54884;DHT22;40776;52.880;6.016;2023-07-13T15:45:23;24.30;99.90
54884;DHT22;40776;52.880;6.016;2023-07-13T15:47:51;25.00;99.90
54884;DHT22;40776;52.880;6.016;2023-07-13T15:50:23;25.30;99.90
54884;DHT22;40776;52.880;6.016;2023-07-13T15:52:52;25.50;99.90
54884;DHT22;40776;52.880;6.016;2023-07-13T15:55:18;25.50;99.90
54884;DHT22;40776;52.880;6.016;2023-07-13T15:57:50;25.60;99.90
54884;DHT22;40776;52.880;6.016;2023-07-13T16:00:21;25.00;99.90
54884;DHT22;40776;52.880;6.016;2023-07-13T16:02:48;25.20;99.90
54884;DHT22;40776;52.880;6.016;2023-07-13T16:05:15;25.40;99.90
54884;DHT22;40776;52.880;6.016;2023-07-13T16:07:43;26.30;99.90
54884;DHT22;40776;52.880;6.016;2023-07-13T16:10:22;26.30;99.90
54884;DHT22;40776;52.880;6.016;2023-07-13T16:12:50;26.90;99.90
54884;DHT22;40776;52.880;6.016;2023-07-13T16:15:18;26.80;99.90
54884;DHT22;40776;52.880;6.016;2023-07-13T16:17:45;27.10;99.90
54884;DHT22;40776;52.880;6.016;2023-07-13T16:20:11;27.40;99.90
54884;DHT22;40776;52.880;6.016;2023-07-13T16:22:40;27.10;99.90
54884;DHT22;40776;52.880;6.016;2023-07-13T16:25:21;27.60;99.90
54884;DHT22;40776;52.880;6.016;2023-07-13T16:27:51;26.50;99.90
54884;DHT22;40776;52.880;6.016;2023-07-13T16:30:22;26.60;99.90
54884;DHT22;40776;52.880;6.016;2023-07-13T16:32:49;27.00;99.90
54884;DHT22;40776;52.880;6.016;2023-07-13T16:35:18;27.10;99.90
54884;DHT22;40776;52.880;6.016;2023-07-13T16:37:44;27.20;99.90
54884;DHT22;40776;52.880;6.016;2023-07-13T16:40:25;27.00;99.90
54884;DHT22;40776;52.880;6.016;2023-07-13T16:42:53;26.60;99.90
54884;DHT22;40776;52.880;6.016;2023-07-13T16:45:30;26.90;99.90
54884;DHT22;40776;52.880;6.016;2023-07-13T16:48:00;27.20;99.90
54884;DHT22;40776;52.880;6.016;2023-07-13T16:50:31;27.10;99.90
54884;DHT22;40776;52.880;6.016;2023-07-13T16:52:57;27.20;99.90
54884;DHT22;40776;52.880;6.016;2023-07-13T16:55:24;27.20;99.90
54884;DHT22;40776;52.880;6.016;2023-07-13T16:57:58;27.40;99.90
54884;DHT22;40776;52.880;6.016;2023-07-13T17:00:28;26.50;99.90
54884;DHT22;40776;52.880;6.016;2023-07-13T17:02:59;26.10;99.90
54884;DHT22;40776;52.880;6.016;2023-07-13T17:05:32;26.40;99.90
54884;DHT22;40776;52.880;6.016;2023-07-13T17:10:29;26.30;99.90
54884;DHT22;40776;52.880;6.016;2023-07-13T17:12:56;26.40;99.90
54884;DHT22;40776;52.880;6.016;2023-07-13T17:15:23;26.30;99.90
54884;DHT22;40776;52.880;6.016;2023-07-13T17:20:30;25.40;99.90
54884;DHT22;40776;52.880;6.016;2023-07-13T17:25:23;25.80;99.90
54884;DHT22;40776;52.880;6.016;2023-07-13T17:30:20;25.00;99.90
54884;DHT22;40776;52.880;6.016;2023-07-13T17:32:48;25.00;99.90
54884;DHT22;40776;52.880;6.016;2023-07-13T17:35:28;25.40;99.90
54884;DHT22;40776;52.880;6.016;2023-07-13T17:37:59;25.00;99.90
54884;DHT22;40776;52.880;6.016;2023-07-13T17:40:26;24.20;99.90
54884;DHT22;40776;52.880;6.016;2023-07-13T17:45:27;23.90;99.90
54884;DHT22;40776;52.880;6.016;2023-07-13T17:47:53;23.80;99.90
54884;DHT22;40776;52.880;6.016;2023-07-13T17:50:30;24.40;99.90
54884;DHT22;40776;52.880;6.016;2023-07-13T17:55:32;24.90;99.90
54884;DHT22;40776;52.880;6.016;2023-07-13T17:58:00;25.00;99.90
54884;DHT22;40776;52.880;6.016;2023-07-13T18:00:32;24.90;99.90
54884;DHT22;40776;52.880;6.016;2023-07-13T18:05:44;24.00;99.90
54884;DHT22;40776;52.880;6.016;2023-07-13T18:30:19;21.00;99.90
54884;DHT22;40776;52.880;6.016;2023-07-13T18:55:18;20.60;99.90
54884;DHT22;40776;52.880;6.016;2023-07-13T19:22:49;19.70;99.90
